createdAt,value
2023-05-17T00:02:56.670Z,13.40
2023-05-17T00:05:59.084Z,14.35
2023-05-17T00:09:01.628Z,12.38
2023-05-17T00:12:04.248Z,14.05
2023-05-17T00:15:07.294Z,12.68
2023-05-17T00:18:09.849Z,18.60
2023-05-17T00:21:12.353Z,17.48
2023-05-17T00:24:14.804Z,27.75
2023-05-17T00:27:17.311Z,23.58
2023-05-17T00:30:20.530Z,14.23
2023-05-17T00:33:23.196Z,10.35
2023-05-17T00:36:25.923Z,16.08
2023-05-17T00:39:28.288Z,13.43
2023-05-17T00:42:31.003Z,15.65
2023-05-17T00:45:33.556Z,12.77
2023-05-17T00:48:36.154Z,10.52
2023-05-17T00:51:38.720Z,14.30
2023-05-17T00:54:41.302Z,14.10
2023-05-17T00:57:43.682Z,11.63
2023-05-17T01:00:46.528Z,17.30
2023-05-17T01:03:50.262Z,11.30
2023-05-17T01:06:52.923Z,12.13
2023-05-17T01:09:55.534Z,14.52
2023-05-17T01:13:23.943Z,12.80
2023-05-17T01:16:30.978Z,12.50
2023-05-17T01:19:45.497Z,10.63
2023-05-17T01:23:06.324Z,14.73
2023-05-17T01:26:19.241Z,12.13
2023-05-17T01:29:27.745Z,10.70
2023-05-17T01:32:31.033Z,14.88
2023-05-17T01:35:33.507Z,9.10
2023-05-17T01:38:36.019Z,10.18
2023-05-17T01:41:42.469Z,8.75
2023-05-17T01:44:51.139Z,10.48
2023-05-17T01:48:15.072Z,10.73
2023-05-17T01:51:20.437Z,12.00
2023-05-17T01:54:28.951Z,17.38
2023-05-17T01:57:34.730Z,18.38
2023-05-17T02:00:37.214Z,16.40
2023-05-17T02:03:39.722Z,12.75
2023-05-17T02:06:42.125Z,13.80
2023-05-17T02:09:44.499Z,10.88
2023-05-17T02:12:46.970Z,14.43
2023-05-17T02:15:49.465Z,11.32
2023-05-17T02:18:52.002Z,16.08
2023-05-17T02:21:54.359Z,13.57
2023-05-17T02:24:58.232Z,12.68
2023-05-17T02:28:00.734Z,11.75
2023-05-17T02:31:03.515Z,14.13
2023-05-17T02:34:05.989Z,10.73
2023-05-17T02:37:08.508Z,11.32
2023-05-17T02:40:12.745Z,10.75
2023-05-17T02:43:15.279Z,15.13
2023-05-17T02:46:17.678Z,10.20
2023-05-17T02:49:20.103Z,9.90
2023-05-17T02:52:22.702Z,8.75
2023-05-17T02:55:25.261Z,11.02
2023-05-17T02:58:28.006Z,11.82
2023-05-17T03:01:30.959Z,13.10
2023-05-17T03:04:34.148Z,15.63
2023-05-17T03:07:37.147Z,10.20
2023-05-17T03:10:39.588Z,16.05
2023-05-17T03:13:43.728Z,35.75
2023-05-17T03:16:47.656Z,26.05
2023-05-17T03:19:50.296Z,21.08
2023-05-17T03:22:52.887Z,20.52
2023-05-17T03:25:55.482Z,15.02
2023-05-17T03:28:58.009Z,17.58
2023-05-17T03:32:01.127Z,15.05
2023-05-17T03:35:03.920Z,18.15
2023-05-17T03:38:06.382Z,16.85
2023-05-17T03:41:09.136Z,16.88
2023-05-17T03:44:11.657Z,16.27
2023-05-17T03:47:14.105Z,13.60
2023-05-17T03:50:16.698Z,16.38
2023-05-17T03:53:19.088Z,17.08
2023-05-17T03:56:21.545Z,18.25
2023-05-17T03:59:23.971Z,16.58
2023-05-17T04:02:26.573Z,15.88
2023-05-17T04:05:29.313Z,16.17
2023-05-17T04:08:31.979Z,14.73
2023-05-17T04:11:34.780Z,13.57
2023-05-17T04:14:38.796Z,11.73
2023-05-17T04:17:41.397Z,8.10
2023-05-17T04:20:44.545Z,14.25
2023-05-17T04:23:46.952Z,9.70
2023-05-17T04:29:56.553Z,8.93
2023-05-17T04:32:59.224Z,12.10
2023-05-17T04:36:02.781Z,10.65
2023-05-17T04:39:07.366Z,11.95
2023-05-17T04:42:10.223Z,11.02
2023-05-17T04:45:21.869Z,12.45
2023-05-17T04:48:26.482Z,12.55
2023-05-17T04:51:32.904Z,9.57
2023-05-17T04:54:36.818Z,11.95
2023-05-17T04:57:40.043Z,8.38
2023-05-17T05:00:43.848Z,6.70
2023-05-17T05:03:47.168Z,7.00
2023-05-17T05:06:49.736Z,6.90
2023-05-17T05:09:53.277Z,7.83
2023-05-17T05:12:58.343Z,9.48
2023-05-17T05:19:05.149Z,7.53
2023-05-17T05:22:08.425Z,5.30
2023-05-17T05:28:15.193Z,7.15
2023-05-17T05:31:18.238Z,7.95
2023-05-17T05:34:28.593Z,6.93
2023-05-17T05:37:31.296Z,9.10
2023-05-17T05:40:33.911Z,8.05
2023-05-17T05:43:37.991Z,5.00
2023-05-17T05:46:41.885Z,9.75
2023-05-17T05:49:44.595Z,5.85
2023-05-17T05:52:47.648Z,9.52
2023-05-17T05:55:50.479Z,9.75
2023-05-17T05:58:53.842Z,6.68
2023-05-17T06:01:56.421Z,11.18
2023-05-17T06:04:58.808Z,6.97
2023-05-17T06:08:01.307Z,8.35
2023-05-17T06:11:04.015Z,10.02
2023-05-17T06:14:06.356Z,10.13
2023-05-17T06:17:08.779Z,11.30
2023-05-17T06:20:12.015Z,7.55
2023-05-17T06:23:14.758Z,9.60
2023-05-17T06:26:17.268Z,7.07
2023-05-17T06:29:19.641Z,7.38
2023-05-17T06:32:22.114Z,10.32
2023-05-17T06:35:24.531Z,4.97
2023-05-17T06:38:27.050Z,6.47
2023-05-17T06:41:29.508Z,4.93
2023-05-17T06:44:32.186Z,6.68
2023-05-17T06:47:34.689Z,7.32
2023-05-17T06:50:37.190Z,5.78
2023-05-17T06:53:39.723Z,6.20
2023-05-17T06:56:43.494Z,7.32
2023-05-17T06:59:45.807Z,8.82
2023-05-17T07:02:48.535Z,9.60
2023-05-17T07:05:50.939Z,9.43
2023-05-17T07:08:53.580Z,8.55
2023-05-17T07:11:56.220Z,7.07
2023-05-17T07:14:58.634Z,6.78
2023-05-17T07:18:01.282Z,11.75
2023-05-17T07:21:03.797Z,7.13
2023-05-17T07:24:06.383Z,8.60
2023-05-17T07:27:08.729Z,6.82
2023-05-17T07:30:11.918Z,8.55
2023-05-17T07:33:14.385Z,5.10
2023-05-17T07:36:19.614Z,16.25
2023-05-17T07:39:21.984Z,9.75
2023-05-17T07:42:24.413Z,7.05
2023-05-17T07:45:26.928Z,8.20
2023-05-17T07:48:29.731Z,9.23
2023-05-17T07:51:32.238Z,7.55
2023-05-17T07:54:34.947Z,7.68
2023-05-17T07:57:37.474Z,7.85
2023-05-17T08:00:41.269Z,10.13
2023-05-17T08:03:48.272Z,11.23
2023-05-17T08:06:51.193Z,6.57
2023-05-17T08:09:53.759Z,8.40
2023-05-17T08:12:56.320Z,6.38
2023-05-17T08:16:12.898Z,7.18
2023-05-17T08:19:17.579Z,6.50
2023-05-17T08:22:20.174Z,7.88
2023-05-17T08:25:22.656Z,7.07
2023-05-17T08:28:25.151Z,9.50
2023-05-17T08:31:27.597Z,9.55
2023-05-17T08:34:30.043Z,8.25
2023-05-17T08:37:32.982Z,8.25
2023-05-17T08:40:35.551Z,12.57
2023-05-17T08:43:38.085Z,6.75
2023-05-17T08:46:41.576Z,16.77
2023-05-17T08:49:46.368Z,4.50
2023-05-17T08:52:51.439Z,10.90
2023-05-17T08:56:04.141Z,8.07
2023-05-17T08:59:07.265Z,6.65
2023-05-17T09:02:11.324Z,8.48
2023-05-17T09:05:14.504Z,8.32
2023-05-17T09:08:18.030Z,6.80
2023-05-17T09:11:27.044Z,6.15
2023-05-17T09:14:35.893Z,7.50
2023-05-17T09:17:38.550Z,8.48
2023-05-17T09:20:42.170Z,8.27
2023-05-17T09:23:54.254Z,5.60
2023-05-17T09:27:05.943Z,9.93
2023-05-17T09:30:11.767Z,4.63
2023-05-17T09:33:16.645Z,7.22
2023-05-17T09:36:23.190Z,8.57
2023-05-17T09:39:26.110Z,6.40
2023-05-17T09:42:28.613Z,5.25
2023-05-17T09:45:36.385Z,8.45
2023-05-17T09:48:39.609Z,6.93
2023-05-17T09:51:44.518Z,5.78
2023-05-17T09:54:54.152Z,9.10
2023-05-17T09:58:03.965Z,7.22
2023-05-17T10:01:08.750Z,10.10
2023-05-17T10:04:14.993Z,9.23
2023-05-17T10:07:21.592Z,7.70
2023-05-17T10:10:24.287Z,6.47
2023-05-17T10:13:33.704Z,6.20
2023-05-17T10:16:36.859Z,9.98
2023-05-17T10:19:39.813Z,7.35
2023-05-17T10:22:42.609Z,11.30
2023-05-17T10:25:45.703Z,9.70
2023-05-17T10:28:51.300Z,7.30
2023-05-17T10:31:53.786Z,11.07
2023-05-17T10:35:06.527Z,5.15
2023-05-17T10:38:13.770Z,6.93
2023-05-17T10:41:17.633Z,8.63
2023-05-17T10:44:20.291Z,9.75
2023-05-17T10:47:23.327Z,9.10
2023-05-17T10:50:27.624Z,9.52
2023-05-17T10:56:33.295Z,8.60
2023-05-17T10:59:36.070Z,13.07
2023-05-17T11:02:41.350Z,7.55
2023-05-17T11:05:46.092Z,8.13
2023-05-17T11:09:16.890Z,8.45
2023-05-17T11:12:31.421Z,7.25
2023-05-17T11:15:36.371Z,8.38
2023-05-17T11:18:56.311Z,6.70
2023-05-17T11:21:59.915Z,7.07
2023-05-17T11:25:02.548Z,8.70
2023-05-17T11:28:20.618Z,6.97
2023-05-17T11:31:31.197Z,7.18
2023-05-17T11:34:34.749Z,6.93
2023-05-17T11:37:37.283Z,4.18
2023-05-17T11:40:40.133Z,5.20
2023-05-17T11:43:46.385Z,7.40
2023-05-17T11:46:48.814Z,6.68
2023-05-17T11:49:54.321Z,7.22
2023-05-17T11:53:00.371Z,9.68
2023-05-17T11:56:04.843Z,8.68
2023-05-17T12:02:10.209Z,5.78
2023-05-17T12:05:12.872Z,8.85
2023-05-17T12:08:19.332Z,5.30
2023-05-17T12:11:22.190Z,8.07
2023-05-17T12:14:24.904Z,7.25
2023-05-17T12:17:33.535Z,4.22
2023-05-17T12:20:38.160Z,8.80
2023-05-17T12:23:46.917Z,11.27
2023-05-17T12:26:50.798Z,12.02
2023-05-17T12:29:54.327Z,5.78
2023-05-17T12:32:56.889Z,7.90
2023-05-17T12:35:59.731Z,8.40
2023-05-17T12:39:02.558Z,7.70
2023-05-17T12:42:05.125Z,6.88
2023-05-17T12:45:08.000Z,8.20
2023-05-17T12:48:10.593Z,9.02
2023-05-17T12:51:16.625Z,9.65
2023-05-17T12:54:24.825Z,8.57
2023-05-17T12:57:27.323Z,6.40
2023-05-17T13:00:29.917Z,8.55
2023-05-17T13:03:32.816Z,7.72
2023-05-17T13:06:51.759Z,6.13
2023-05-17T13:09:54.203Z,7.75
2023-05-17T13:12:58.645Z,7.88
2023-05-17T13:19:03.901Z,6.68
2023-05-17T13:22:07.210Z,6.70
2023-05-17T13:25:09.892Z,5.97
2023-05-17T13:28:12.322Z,6.38
2023-05-17T13:31:14.715Z,5.20
2023-05-17T13:34:17.113Z,5.50
2023-05-17T13:37:21.247Z,6.78
2023-05-17T13:40:23.845Z,5.72
2023-05-17T13:43:26.211Z,4.75
2023-05-17T13:46:28.603Z,9.43
2023-05-17T13:49:31.184Z,5.45
2023-05-17T13:52:33.760Z,6.25
2023-05-17T13:55:36.131Z,6.82
2023-05-17T13:58:39.259Z,5.75
2023-05-17T14:01:42.135Z,8.80
2023-05-17T14:04:44.674Z,6.13
2023-05-17T14:07:47.287Z,7.00
2023-05-17T14:10:49.802Z,3.55
2023-05-17T14:13:52.191Z,4.63
2023-05-17T14:16:55.458Z,7.10
2023-05-17T14:19:57.961Z,7.20
2023-05-17T14:23:01.186Z,6.60
2023-05-17T14:26:07.280Z,7.10
2023-05-17T14:29:09.869Z,6.75
2023-05-17T14:32:14.179Z,6.95
2023-05-17T14:38:23.207Z,8.20
2023-05-17T14:41:25.707Z,12.80
2023-05-17T14:44:28.145Z,11.98
2023-05-17T14:47:30.700Z,4.90
2023-05-17T14:50:34.696Z,5.30
2023-05-17T14:53:37.812Z,4.40
2023-05-17T14:56:40.195Z,12.77
2023-05-17T14:59:45.343Z,7.03
2023-05-17T15:02:48.057Z,8.15
2023-05-17T15:06:02.056Z,9.25
2023-05-17T15:09:05.824Z,10.35
2023-05-17T15:19:24.959Z,6.65
2023-05-17T15:22:27.377Z,9.27
2023-05-17T15:25:30.323Z,10.77
2023-05-17T15:28:32.969Z,11.05
2023-05-17T15:31:35.292Z,9.07
2023-05-17T15:34:37.820Z,13.00
2023-05-17T15:37:40.273Z,9.48
2023-05-17T15:40:43.717Z,7.60
2023-05-17T15:43:46.114Z,7.07
2023-05-17T15:46:48.879Z,9.55
2023-05-17T15:49:51.283Z,8.40
2023-05-17T15:52:54.096Z,14.32
2023-05-17T15:55:56.993Z,9.25
2023-05-17T15:59:02.443Z,10.38
2023-05-17T16:02:05.353Z,10.63
2023-05-17T16:05:08.627Z,7.38
2023-05-17T16:08:12.410Z,9.65
2023-05-17T16:11:14.814Z,7.80
2023-05-17T16:14:18.096Z,13.57
2023-05-17T16:17:20.653Z,9.63
2023-05-17T16:20:23.037Z,9.90
2023-05-17T16:23:26.975Z,9.60
2023-05-17T16:26:30.103Z,8.45
2023-05-17T16:29:33.388Z,8.77
2023-05-17T16:32:36.023Z,9.85
2023-05-17T16:35:38.644Z,6.03
2023-05-17T16:38:41.359Z,9.20
2023-05-17T16:41:43.796Z,13.43
2023-05-17T16:44:46.260Z,20.17
2023-05-17T16:47:48.726Z,7.78
2023-05-17T16:50:51.538Z,9.35
2023-05-17T16:56:57.920Z,10.50
2023-05-17T17:00:03.018Z,14.00
2023-05-17T17:03:09.008Z,7.53
2023-05-17T17:06:12.091Z,11.00
2023-05-17T17:09:15.209Z,19.77
2023-05-17T17:12:24.809Z,30.75
2023-05-17T17:15:28.987Z,23.13
2023-05-17T17:18:31.564Z,15.30
2023-05-17T17:21:36.668Z,9.60
2023-05-17T17:24:39.782Z,6.32
2023-05-17T17:27:42.301Z,9.18
2023-05-17T17:30:44.686Z,10.23
2023-05-17T17:33:47.180Z,28.73
2023-05-17T17:36:49.622Z,27.95
2023-05-17T17:39:52.055Z,6.82
2023-05-17T17:42:54.496Z,6.10
2023-05-17T17:45:56.902Z,7.63
2023-05-17T17:48:59.264Z,8.88
2023-05-17T17:52:01.820Z,12.63
2023-05-17T17:55:04.466Z,8.23
2023-05-17T17:58:07.185Z,7.90
2023-05-17T18:01:09.605Z,12.52
2023-05-17T18:04:13.732Z,7.35
